sensor_id;sensor_type;location;lat;lon;timestamp;temperature;humidity
12115;DHT22;6121;49.810;6.418;2023-05-25T00:00:14;10.10;99.90
12115;DHT22;6121;49.810;6.418;2023-05-25T00:02:41;10.10;99.90
12115;DHT22;6121;49.810;6.418;2023-05-25T00:05:11;10.20;99.90
12115;DHT22;6121;49.810;6.418;2023-05-25T00:07:38;10.20;99.90
12115;DHT22;6121;49.810;6.418;2023-05-25T00:10:07;10.00;99.90
12115;DHT22;6121;49.810;6.418;2023-05-25T00:12:33;9.90;99.90
12115;DHT22;6121;49.810;6.418;2023-05-25T00:14:59;9.70;99.90
12115;DHT22;6121;49.810;6.418;2023-05-25T00:17:24;9.50;99.90
12115;DHT22;6121;49.810;6.418;2023-05-25T00:19:57;9.50;99.90
12115;DHT22;6121;49.810;6.418;2023-05-25T00:22:23;9.60;99.90
12115;DHT22;6121;49.810;6.418;2023-05-25T00:24:54;9.50;99.90
12115;DHT22;6121;49.810;6.418;2023-05-25T00:27:20;9.40;99.90
12115;DHT22;6121;49.810;6.418;2023-05-25T00:29:46;9.40;99.90
12115;DHT22;6121;49.810;6.418;2023-05-25T00:32:11;9.40;99.90
12115;DHT22;6121;49.810;6.418;2023-05-25T00:34:38;9.40;99.90
12115;DHT22;6121;49.810;6.418;2023-05-25T00:37:04;9.40;99.90
12115;DHT22;6121;49.810;6.418;2023-05-25T00:39:29;9.50;99.90
12115;DHT22;6121;49.810;6.418;2023-05-25T00:41:56;9.50;99.90
12115;DHT22;6121;49.810;6.418;2023-05-25T00:44:23;9.30;99.90
12115;DHT22;6121;49.810;6.418;2023-05-25T00:46:51;9.30;99.90
12115;DHT22;6121;49.810;6.418;2023-05-25T00:49:18;9.20;99.90
12115;DHT22;6121;49.810;6.418;2023-05-25T00:51:46;9.00;99.90
12115;DHT22;6121;49.810;6.418;2023-05-25T00:54:16;8.80;99.90
12115;DHT22;6121;49.810;6.418;2023-05-25T00:56:50;8.90;99.90
12115;DHT22;6121;49.810;6.418;2023-05-25T00:59:42;8.90;99.90
12115;DHT22;6121;49.810;6.418;2023-05-25T01:02:10;8.90;99.90
12115;DHT22;6121;49.810;6.418;2023-05-25T01:04:44;9.00;99.90
12115;DHT22;6121;49.810;6.418;2023-05-25T01:07:16;9.00;99.90
12115;DHT22;6121;49.810;6.418;2023-05-25T01:09:45;8.70;99.90
12115;DHT22;6121;49.810;6.418;2023-05-25T01:12:13;8.70;99.90
12115;DHT22;6121;49.810;6.418;2023-05-25T01:14:40;8.80;99.90
12115;DHT22;6121;49.810;6.418;2023-05-25T01:17:11;8.80;99.90
12115;DHT22;6121;49.810;6.418;2023-05-25T01:19:37;8.80;99.90
12115;DHT22;6121;49.810;6.418;2023-05-25T01:22:24;8.90;99.90
12115;DHT22;6121;49.810;6.418;2023-05-25T01:25:02;8.90;99.90
12115;DHT22;6121;49.810;6.418;2023-05-25T01:27:39;8.80;99.90
12115;DHT22;6121;49.810;6.418;2023-05-25T01:30:31;8.60;99.90
12115;DHT22;6121;49.810;6.418;2023-05-25T01:32:58;8.70;99.90
12115;DHT22;6121;49.810;6.418;2023-05-25T01:35:27;8.80;99.90
12115;DHT22;6121;49.810;6.418;2023-05-25T01:37:54;9.00;99.90
12115;DHT22;6121;49.810;6.418;2023-05-25T01:40:22;9.10;99.90
12115;DHT22;6121;49.810;6.418;2023-05-25T01:42:48;9.10;99.90
12115;DHT22;6121;49.810;6.418;2023-05-25T01:45:15;9.10;99.90
12115;DHT22;6121;49.810;6.418;2023-05-25T01:48:15;9.10;99.90
12115;DHT22;6121;49.810;6.418;2023-05-25T01:50:54;9.10;99.90
12115;DHT22;6121;49.810;6.418;2023-05-25T01:53:29;9.00;99.90
12115;DHT22;6121;49.810;6.418;2023-05-25T01:56:01;9.00;99.90
12115;DHT22;6121;49.810;6.418;2023-05-25T01:58:41;9.00;99.90
12115;DHT22;6121;49.810;6.418;2023-05-25T02:01:08;9.00;99.90
12115;DHT22;6121;49.810;6.418;2023-05-25T02:03:36;8.90;99.90
12115;DHT22;6121;49.810;6.418;2023-05-25T02:06:02;8.90;99.90
12115;DHT22;6121;49.810;6.418;2023-05-25T02:08:29;8.80;99.90
12115;DHT22;6121;49.810;6.418;2023-05-25T02:10:54;8.80;99.90
12115;DHT22;6121;49.810;6.418;2023-05-25T02:13:20;8.80;99.90
12115;DHT22;6121;49.810;6.418;2023-05-25T02:15:46;8.70;99.90
12115;DHT22;6121;49.810;6.418;2023-05-25T02:18:12;8.80;99.90
12115;DHT22;6121;49.810;6.418;2023-05-25T02:20:38;8.80;99.90
12115;DHT22;6121;49.810;6.418;2023-05-25T02:23:04;8.90;99.90
12115;DHT22;6121;49.810;6.418;2023-05-25T02:25:30;8.80;99.90
12115;DHT22;6121;49.810;6.418;2023-05-25T02:27:56;8.70;99.90
12115;DHT22;6121;49.810;6.418;2023-05-25T02:30:22;8.60;99.90
12115;DHT22;6121;49.810;6.418;2023-05-25T02:32:48;8.60;99.90
12115;DHT22;6121;49.810;6.418;2023-05-25T02:35:15;8.60;99.90
12115;DHT22;6121;49.810;6.418;2023-05-25T02:37:41;8.60;99.90
12115;DHT22;6121;49.810;6.418;2023-05-25T02:40:07;8.70;99.90
12115;DHT22;6121;49.810;6.418;2023-05-25T02:42:35;8.80;99.90
12115;DHT22;6121;49.810;6.418;2023-05-25T02:45:01;8.80;99.90
12115;DHT22;6121;49.810;6.418;2023-05-25T02:47:27;8.80;99.90
12115;DHT22;6121;49.810;6.418;2023-05-25T02:49:53;8.80;99.90
12115;DHT22;6121;49.810;6.418;2023-05-25T02:52:18;8.80;99.90
12115;DHT22;6121;49.810;6.418;2023-05-25T02:54:44;8.70;99.90
12115;DHT22;6121;49.810;6.418;2023-05-25T02:57:16;8.70;99.90
12115;DHT22;6121;49.810;6.418;2023-05-25T02:59:43;8.70;99.90
12115;DHT22;6121;49.810;6.418;2023-05-25T03:02:09;8.70;99.90
12115;DHT22;6121;49.810;6.418;2023-05-25T03:04:35;8.70;99.90
12115;DHT22;6121;49.810;6.418;2023-05-25T03:07:03;8.60;99.90
12115;DHT22;6121;49.810;6.418;2023-05-25T03:09:29;8.50;99.90
12115;DHT22;6121;49.810;6.418;2023-05-25T03:11:55;8.50;99.90
12115;DHT22;6121;49.810;6.418;2023-05-25T03:14:23;8.40;99.90
12115;DHT22;6121;49.810;6.418;2023-05-25T03:16:55;8.40;99.90
12115;DHT22;6121;49.810;6.418;2023-05-25T03:19:22;8.40;99.90
12115;DHT22;6121;49.810;6.418;2023-05-25T03:21:48;8.40;99.90
12115;DHT22;6121;49.810;6.418;2023-05-25T03:24:14;8.40;99.90
12115;DHT22;6121;49.810;6.418;2023-05-25T03:26:40;8.40;99.90
12115;DHT22;6121;49.810;6.418;2023-05-25T03:29:06;8.10;99.90
12115;DHT22;6121;49.810;6.418;2023-05-25T03:31:32;7.80;99.90
12115;DHT22;6121;49.810;6.418;2023-05-25T03:33:58;7.70;99.90
12115;DHT22;6121;49.810;6.418;2023-05-25T03:36:25;7.90;99.90
12115;DHT22;6121;49.810;6.418;2023-05-25T03:38:55;7.90;99.90
12115;DHT22;6121;49.810;6.418;2023-05-25T03:41:21;8.00;99.90
12115;DHT22;6121;49.810;6.418;2023-05-25T03:43:48;8.00;99.90
12115;DHT22;6121;49.810;6.418;2023-05-25T03:46:14;8.00;99.90
12115;DHT22;6121;49.810;6.418;2023-05-25T03:48:42;7.90;99.90
12115;DHT22;6121;49.810;6.418;2023-05-25T03:51:08;7.80;99.90
12115;DHT22;6121;49.810;6.418;2023-05-25T03:53:33;7.90;99.90
12115;DHT22;6121;49.810;6.418;2023-05-25T03:55:59;7.90;99.90
12115;DHT22;6121;49.810;6.418;2023-05-25T03:58:26;7.90;99.90
12115;DHT22;6121;49.810;6.418;2023-05-25T04:00:52;7.90;99.90
12115;DHT22;6121;49.810;6.418;2023-05-25T04:03:19;7.90;99.90
12115;DHT22;6121;49.810;6.418;2023-05-25T04:05:45;7.90;99.90
12115;DHT22;6121;49.810;6.418;2023-05-25T04:08:13;7.80;99.90
12115;DHT22;6121;49.810;6.418;2023-05-25T04:10:39;7.80;99.90
12115;DHT22;6121;49.810;6.418;2023-05-25T04:13:04;7.70;99.90
12115;DHT22;6121;49.810;6.418;2023-05-25T04:15:31;7.70;99.90
12115;DHT22;6121;49.810;6.418;2023-05-25T04:18:07;7.70;99.90
12115;DHT22;6121;49.810;6.418;2023-05-25T04:20:35;7.70;99.90
12115;DHT22;6121;49.810;6.418;2023-05-25T04:23:01;7.70;99.90
12115;DHT22;6121;49.810;6.418;2023-05-25T04:25:26;7.70;99.90
12115;DHT22;6121;49.810;6.418;2023-05-25T04:27:52;7.60;99.90
12115;DHT22;6121;49.810;6.418;2023-05-25T04:30:37;7.60;99.90
12115;DHT22;6121;49.810;6.418;2023-05-25T04:33:18;7.70;99.90
12115;DHT22;6121;49.810;6.418;2023-05-25T04:35:57;7.70;99.90
12115;DHT22;6121;49.810;6.418;2023-05-25T04:38:24;7.90;99.90
12115;DHT22;6121;49.810;6.418;2023-05-25T04:40:51;7.80;99.90
12115;DHT22;6121;49.810;6.418;2023-05-25T04:43:19;7.90;99.90
12115;DHT22;6121;49.810;6.418;2023-05-25T04:45:45;8.00;99.90
12115;DHT22;6121;49.810;6.418;2023-05-25T04:48:12;8.10;99.90
12115;DHT22;6121;49.810;6.418;2023-05-25T04:50:39;8.30;99.90
12115;DHT22;6121;49.810;6.418;2023-05-25T04:53:05;8.30;99.90
12115;DHT22;6121;49.810;6.418;2023-05-25T04:55:31;8.40;99.90
12115;DHT22;6121;49.810;6.418;2023-05-25T04:57:58;8.50;99.90
12115;DHT22;6121;49.810;6.418;2023-05-25T05:00:24;8.60;99.90
12115;DHT22;6121;49.810;6.418;2023-05-25T05:02:54;8.60;99.90
12115;DHT22;6121;49.810;6.418;2023-05-25T05:05:21;8.70;99.90
12115;DHT22;6121;49.810;6.418;2023-05-25T05:07:47;8.80;99.90
12115;DHT22;6121;49.810;6.418;2023-05-25T05:10:13;8.80;99.90
12115;DHT22;6121;49.810;6.418;2023-05-25T05:12:43;8.90;99.90
12115;DHT22;6121;49.810;6.418;2023-05-25T05:15:09;9.00;99.90
12115;DHT22;6121;49.810;6.418;2023-05-25T05:17:37;8.90;99.90
12115;DHT22;6121;49.810;6.418;2023-05-25T05:20:03;9.00;99.90
12115;DHT22;6121;49.810;6.418;2023-05-25T05:22:32;9.20;99.90
12115;DHT22;6121;49.810;6.418;2023-05-25T05:24:58;9.30;99.90
12115;DHT22;6121;49.810;6.418;2023-05-25T05:27:24;9.40;99.90
12115;DHT22;6121;49.810;6.418;2023-05-25T05:29:58;9.50;99.90
12115;DHT22;6121;49.810;6.418;2023-05-25T05:32:24;9.60;99.90
12115;DHT22;6121;49.810;6.418;2023-05-25T05:34:50;9.80;99.90
12115;DHT22;6121;49.810;6.418;2023-05-25T05:37:42;9.90;99.90
12115;DHT22;6121;49.810;6.418;2023-05-25T05:40:09;9.90;99.90
12115;DHT22;6121;49.810;6.418;2023-05-25T05:42:37;10.00;99.90
12115;DHT22;6121;49.810;6.418;2023-05-25T05:45:03;10.10;99.90
12115;DHT22;6121;49.810;6.418;2023-05-25T05:47:30;10.30;99.90
12115;DHT22;6121;49.810;6.418;2023-05-25T05:49:56;10.50;99.90
12115;DHT22;6121;49.810;6.418;2023-05-25T05:52:23;10.60;99.90
12115;DHT22;6121;49.810;6.418;2023-05-25T05:54:49;10.80;99.90
12115;DHT22;6121;49.810;6.418;2023-05-25T05:57:15;11.00;99.90
12115;DHT22;6121;49.810;6.418;2023-05-25T05:59:42;11.30;99.90
12115;DHT22;6121;49.810;6.418;2023-05-25T06:02:08;11.50;99.90
12115;DHT22;6121;49.810;6.418;2023-05-25T06:04:34;11.50;99.90
12115;DHT22;6121;49.810;6.418;2023-05-25T06:07:00;11.50;99.90
12115;DHT22;6121;49.810;6.418;2023-05-25T06:09:25;11.80;99.90
12115;DHT22;6121;49.810;6.418;2023-05-25T06:11:52;12.00;99.90
12115;DHT22;6121;49.810;6.418;2023-05-25T06:14:18;12.20;99.90
12115;DHT22;6121;49.810;6.418;2023-05-25T06:16:44;12.30;99.90
12115;DHT22;6121;49.810;6.418;2023-05-25T06:19:10;12.50;99.90
12115;DHT22;6121;49.810;6.418;2023-05-25T06:21:35;12.70;99.90
12115;DHT22;6121;49.810;6.418;2023-05-25T06:24:02;12.90;99.90
12115;DHT22;6121;49.810;6.418;2023-05-25T06:26:28;13.00;99.90
12115;DHT22;6121;49.810;6.418;2023-05-25T06:28:55;13.20;99.90
12115;DHT22;6121;49.810;6.418;2023-05-25T06:31:22;13.40;99.90
12115;DHT22;6121;49.810;6.418;2023-05-25T06:33:48;13.60;99.90
12115;DHT22;6121;49.810;6.418;2023-05-25T06:36:14;13.70;99.90
12115;DHT22;6121;49.810;6.418;2023-05-25T06:38:40;13.70;99.90
12115;DHT22;6121;49.810;6.418;2023-05-25T06:41:07;13.80;99.90
12115;DHT22;6121;49.810;6.418;2023-05-25T06:43:34;14.10;99.90
12115;DHT22;6121;49.810;6.418;2023-05-25T06:46:15;14.10;99.90
12115;DHT22;6121;49.810;6.418;2023-05-25T06:48:43;14.40;99.90
12115;DHT22;6121;49.810;6.418;2023-05-25T06:51:10;14.50;99.90
12115;DHT22;6121;49.810;6.418;2023-05-25T06:53:36;14.60;99.90
12115;DHT22;6121;49.810;6.418;2023-05-25T06:56:03;14.70;99.90
12115;DHT22;6121;49.810;6.418;2023-05-25T06:58:29;14.60;99.90
12115;DHT22;6121;49.810;6.418;2023-05-25T07:00:55;14.70;99.90
12115;DHT22;6121;49.810;6.418;2023-05-25T07:03:21;14.90;99.90
12115;DHT22;6121;49.810;6.418;2023-05-25T07:05:47;15.20;99.90
12115;DHT22;6121;49.810;6.418;2023-05-25T07:08:13;15.30;99.90
12115;DHT22;6121;49.810;6.418;2023-05-25T07:10:38;15.40;99.90
12115;DHT22;6121;49.810;6.418;2023-05-25T07:13:04;15.60;99.90
12115;DHT22;6121;49.810;6.418;2023-05-25T07:15:31;15.70;99.90
12115;DHT22;6121;49.810;6.418;2023-05-25T07:17:57;15.90;99.90
12115;DHT22;6121;49.810;6.418;2023-05-25T07:20:23;15.80;99.90
12115;DHT22;6121;49.810;6.418;2023-05-25T07:22:49;16.10;99.90
12115;DHT22;6121;49.810;6.418;2023-05-25T07:25:16;16.30;99.60
12115;DHT22;6121;49.810;6.418;2023-05-25T07:27:47;16.40;99.20
12115;DHT22;6121;49.810;6.418;2023-05-25T07:30:13;16.60;99.20
12115;DHT22;6121;49.810;6.418;2023-05-25T07:32:39;16.50;99.20
12115;DHT22;6121;49.810;6.418;2023-05-25T07:35:05;16.50;98.10
12115;DHT22;6121;49.810;6.418;2023-05-25T07:37:32;16.70;98.20
12115;DHT22;6121;49.810;6.418;2023-05-25T07:39:59;16.90;98.30
12115;DHT22;6121;49.810;6.418;2023-05-25T07:42:25;17.40;98.10
12115;DHT22;6121;49.810;6.418;2023-05-25T07:44:58;17.70;96.80
12115;DHT22;6121;49.810;6.418;2023-05-25T07:47:24;17.40;96.80
12115;DHT22;6121;49.810;6.418;2023-05-25T07:49:50;17.40;96.40
12115;DHT22;6121;49.810;6.418;2023-05-25T07:52:16;17.70;96.30
12115;DHT22;6121;49.810;6.418;2023-05-25T07:54:44;17.60;95.70
12115;DHT22;6121;49.810;6.418;2023-05-25T07:57:10;17.50;95.60
12115;DHT22;6121;49.810;6.418;2023-05-25T07:59:35;17.40;95.70
12115;DHT22;6121;49.810;6.418;2023-05-25T08:02:02;17.80;95.50
12115;DHT22;6121;49.810;6.418;2023-05-25T08:04:29;18.30;95.50
12115;DHT22;6121;49.810;6.418;2023-05-25T08:06:55;17.70;95.00
12115;DHT22;6121;49.810;6.418;2023-05-25T08:09:21;17.70;95.00
12115;DHT22;6121;49.810;6.418;2023-05-25T08:11:47;17.80;94.60
12115;DHT22;6121;49.810;6.418;2023-05-25T08:14:15;18.20;94.70
12115;DHT22;6121;49.810;6.418;2023-05-25T08:16:41;18.40;94.40
12115;DHT22;6121;49.810;6.418;2023-05-25T08:19:07;18.50;94.40
12115;DHT22;6121;49.810;6.418;2023-05-25T08:21:33;18.70;94.70
12115;DHT22;6121;49.810;6.418;2023-05-25T08:23:59;19.20;94.30
12115;DHT22;6121;49.810;6.418;2023-05-25T08:26:29;19.20;94.00
12115;DHT22;6121;49.810;6.418;2023-05-25T08:28:56;19.30;93.10
12115;DHT22;6121;49.810;6.418;2023-05-25T08:31:23;19.60;93.20
12115;DHT22;6121;49.810;6.418;2023-05-25T08:33:49;19.70;93.30
12115;DHT22;6121;49.810;6.418;2023-05-25T08:36:15;19.50;93.50
12115;DHT22;6121;49.810;6.418;2023-05-25T08:38:41;19.80;93.00
12115;DHT22;6121;49.810;6.418;2023-05-25T08:41:07;19.80;92.60
12115;DHT22;6121;49.810;6.418;2023-05-25T08:43:33;19.90;92.50
12115;DHT22;6121;49.810;6.418;2023-05-25T08:46:06;20.60;92.20
12115;DHT22;6121;49.810;6.418;2023-05-25T08:48:34;20.80;91.10
12115;DHT22;6121;49.810;6.418;2023-05-25T08:51:04;20.80;90.50
12115;DHT22;6121;49.810;6.418;2023-05-25T08:53:35;20.50;90.20
12115;DHT22;6121;49.810;6.418;2023-05-25T08:56:09;19.80;89.60
12115;DHT22;6121;49.810;6.418;2023-05-25T08:59:01;19.70;89.80
12115;DHT22;6121;49.810;6.418;2023-05-25T09:01:30;19.80;89.20
12115;DHT22;6121;49.810;6.418;2023-05-25T09:03:58;19.90;89.10
12115;DHT22;6121;49.810;6.418;2023-05-25T09:06:25;20.30;89.60
12115;DHT22;6121;49.810;6.418;2023-05-25T09:08:53;20.60;89.00
12115;DHT22;6121;49.810;6.418;2023-05-25T09:11:20;20.20;88.10
12115;DHT22;6121;49.810;6.418;2023-05-25T09:13:46;20.40;89.00
12115;DHT22;6121;49.810;6.418;2023-05-25T09:16:13;20.90;86.00
12115;DHT22;6121;49.810;6.418;2023-05-25T09:18:41;21.20;85.60
12115;DHT22;6121;49.810;6.418;2023-05-25T09:21:07;21.00;84.40
12115;DHT22;6121;49.810;6.418;2023-05-25T09:23:34;21.10;84.30
12115;DHT22;6121;49.810;6.418;2023-05-25T09:26:01;20.90;84.20
12115;DHT22;6121;49.810;6.418;2023-05-25T09:28:27;20.90;83.40
12115;DHT22;6121;49.810;6.418;2023-05-25T09:30:53;20.70;83.50
12115;DHT22;6121;49.810;6.418;2023-05-25T09:33:20;20.40;85.10
12115;DHT22;6121;49.810;6.418;2023-05-25T09:35:47;20.80;84.20
12115;DHT22;6121;49.810;6.418;2023-05-25T09:38:14;20.90;83.70
12115;DHT22;6121;49.810;6.418;2023-05-25T09:40:40;20.80;82.50
12115;DHT22;6121;49.810;6.418;2023-05-25T09:43:06;20.40;83.50
12115;DHT22;6121;49.810;6.418;2023-05-25T09:45:32;21.20;83.20
12115;DHT22;6121;49.810;6.418;2023-05-25T09:47:58;21.60;82.60
12115;DHT22;6121;49.810;6.418;2023-05-25T09:50:30;21.90;82.90
12115;DHT22;6121;49.810;6.418;2023-05-25T09:53:00;22.10;82.40
12115;DHT22;6121;49.810;6.418;2023-05-25T09:55:27;22.60;79.90
12115;DHT22;6121;49.810;6.418;2023-05-25T09:57:54;21.80;80.20
12115;DHT22;6121;49.810;6.418;2023-05-25T10:00:24;21.80;81.70
12115;DHT22;6121;49.810;6.418;2023-05-25T10:02:51;22.10;80.30
12115;DHT22;6121;49.810;6.418;2023-05-25T10:05:16;21.60;81.30
12115;DHT22;6121;49.810;6.418;2023-05-25T10:07:50;22.10;80.60
12115;DHT22;6121;49.810;6.418;2023-05-25T10:10:17;22.70;80.40
12115;DHT22;6121;49.810;6.418;2023-05-25T10:12:44;23.20;79.20
12115;DHT22;6121;49.810;6.418;2023-05-25T10:15:14;22.80;79.40
12115;DHT22;6121;49.810;6.418;2023-05-25T10:17:52;23.20;79.00
12115;DHT22;6121;49.810;6.418;2023-05-25T10:20:20;23.60;78.50
12115;DHT22;6121;49.810;6.418;2023-05-25T10:22:51;23.40;76.90
12115;DHT22;6121;49.810;6.418;2023-05-25T10:25:31;22.90;78.70
12115;DHT22;6121;49.810;6.418;2023-05-25T10:30:40;23.50;76.80
12115;DHT22;6121;49.810;6.418;2023-05-25T10:33:09;23.50;75.60
12115;DHT22;6121;49.810;6.418;2023-05-25T10:35:38;23.10;76.30
12115;DHT22;6121;49.810;6.418;2023-05-25T10:38:04;23.00;75.90
12115;DHT22;6121;49.810;6.418;2023-05-25T10:40:32;22.80;76.70
12115;DHT22;6121;49.810;6.418;2023-05-25T10:42:58;22.90;76.50
12115;DHT22;6121;49.810;6.418;2023-05-25T10:45:25;23.10;76.50
12115;DHT22;6121;49.810;6.418;2023-05-25T10:47:51;23.00;76.30
12115;DHT22;6121;49.810;6.418;2023-05-25T10:50:22;23.20;75.90
12115;DHT22;6121;49.810;6.418;2023-05-25T10:53:10;22.90;76.40
12115;DHT22;6121;49.810;6.418;2023-05-25T10:55:49;23.50;75.20
12115;DHT22;6121;49.810;6.418;2023-05-25T10:58:27;22.90;75.80
12115;DHT22;6121;49.810;6.418;2023-05-25T11:01:01;22.70;75.60
12115;DHT22;6121;49.810;6.418;2023-05-25T11:03:56;23.30;76.00
12115;DHT22;6121;49.810;6.418;2023-05-25T11:09:29;23.00;76.40
12115;DHT22;6121;49.810;6.418;2023-05-25T11:17:11;23.70;72.20
12115;DHT22;6121;49.810;6.418;2023-05-25T11:19:42;23.60;72.50
12115;DHT22;6121;49.810;6.418;2023-05-25T11:22:34;23.50;72.70
12115;DHT22;6121;49.810;6.418;2023-05-25T11:28:06;22.80;73.90
12115;DHT22;6121;49.810;6.418;2023-05-25T11:30:33;22.40;74.20
12115;DHT22;6121;49.810;6.418;2023-05-25T11:33:03;22.80;76.20
12115;DHT22;6121;49.810;6.418;2023-05-25T11:35:31;23.30;72.30
12115;DHT22;6121;49.810;6.418;2023-05-25T11:37:58;22.90;72.70
12115;DHT22;6121;49.810;6.418;2023-05-25T11:40:28;23.30;72.20
12115;DHT22;6121;49.810;6.418;2023-05-25T11:42:56;23.80;71.50
12115;DHT22;6121;49.810;6.418;2023-05-25T11:45:30;23.80;71.10
12115;DHT22;6121;49.810;6.418;2023-05-25T11:47:58;23.50;70.60
12115;DHT22;6121;49.810;6.418;2023-05-25T11:50:24;23.20;68.10
12115;DHT22;6121;49.810;6.418;2023-05-25T11:52:50;22.80;70.50
12115;DHT22;6121;49.810;6.418;2023-05-25T11:55:16;22.60;70.40
12115;DHT22;6121;49.810;6.418;2023-05-25T11:57:41;22.50;71.20
12115;DHT22;6121;49.810;6.418;2023-05-25T12:00:09;22.80;71.20
12115;DHT22;6121;49.810;6.418;2023-05-25T12:02:39;22.70;69.80
12115;DHT22;6121;49.810;6.418;2023-05-25T12:05:06;22.10;71.60
12115;DHT22;6121;49.810;6.418;2023-05-25T12:07:33;22.50;71.30
12115;DHT22;6121;49.810;6.418;2023-05-25T12:10:06;22.90;71.60
12115;DHT22;6121;49.810;6.418;2023-05-25T12:12:46;22.80;70.30
12115;DHT22;6121;49.810;6.418;2023-05-25T12:15:14;22.90;71.00
12115;DHT22;6121;49.810;6.418;2023-05-25T12:17:42;23.00;71.50
12115;DHT22;6121;49.810;6.418;2023-05-25T12:20:10;22.80;70.80
12115;DHT22;6121;49.810;6.418;2023-05-25T12:22:38;22.70;70.80
12115;DHT22;6121;49.810;6.418;2023-05-25T12:25:05;22.30;70.00
12115;DHT22;6121;49.810;6.418;2023-05-25T12:27:31;22.40;71.10
12115;DHT22;6121;49.810;6.418;2023-05-25T12:29:58;22.70;69.50
12115;DHT22;6121;49.810;6.418;2023-05-25T12:32:24;22.60;71.30
12115;DHT22;6121;49.810;6.418;2023-05-25T12:34:51;22.50;71.40
12115;DHT22;6121;49.810;6.418;2023-05-25T12:37:25;22.70;72.10
12115;DHT22;6121;49.810;6.418;2023-05-25T12:39:51;23.00;71.40
12115;DHT22;6121;49.810;6.418;2023-05-25T12:42:19;23.20;70.10
12115;DHT22;6121;49.810;6.418;2023-05-25T12:44:45;22.90;69.40
12115;DHT22;6121;49.810;6.418;2023-05-25T12:47:18;22.80;69.80
12115;DHT22;6121;49.810;6.418;2023-05-25T12:49:46;23.10;69.60
12115;DHT22;6121;49.810;6.418;2023-05-25T12:55:17;22.90;69.40
12115;DHT22;6121;49.810;6.418;2023-05-25T12:57:43;23.00;69.50
12115;DHT22;6121;49.810;6.418;2023-05-25T13:00:09;22.90;70.60
12115;DHT22;6121;49.810;6.418;2023-05-25T13:02:35;23.10;70.00
12115;DHT22;6121;49.810;6.418;2023-05-25T13:05:01;23.10;68.90
12115;DHT22;6121;49.810;6.418;2023-05-25T13:07:28;23.20;69.00
12115;DHT22;6121;49.810;6.418;2023-05-25T13:09:54;23.20;68.60
12115;DHT22;6121;49.810;6.418;2023-05-25T13:12:21;23.10;67.30
12115;DHT22;6121;49.810;6.418;2023-05-25T13:14:48;22.30;67.90
12115;DHT22;6121;49.810;6.418;2023-05-25T13:17:13;22.10;69.50
12115;DHT22;6121;49.810;6.418;2023-05-25T13:19:39;22.20;70.00
12115;DHT22;6121;49.810;6.418;2023-05-25T13:22:06;22.40;69.60
12115;DHT22;6121;49.810;6.418;2023-05-25T13:24:31;22.60;69.80
12115;DHT22;6121;49.810;6.418;2023-05-25T13:26:58;22.50;69.50
12115;DHT22;6121;49.810;6.418;2023-05-25T13:29:23;22.50;69.30
12115;DHT22;6121;49.810;6.418;2023-05-25T13:31:50;22.50;70.00
12115;DHT22;6121;49.810;6.418;2023-05-25T13:34:16;22.50;70.30
12115;DHT22;6121;49.810;6.418;2023-05-25T13:36:42;22.50;71.00
12115;DHT22;6121;49.810;6.418;2023-05-25T13:39:08;22.30;71.30
12115;DHT22;6121;49.810;6.418;2023-05-25T13:41:38;22.60;71.90
12115;DHT22;6121;49.810;6.418;2023-05-25T13:44:03;22.80;71.50
12115;DHT22;6121;49.810;6.418;2023-05-25T13:46:29;22.70;70.80
12115;DHT22;6121;49.810;6.418;2023-05-25T13:48:55;22.70;71.10
12115;DHT22;6121;49.810;6.418;2023-05-25T13:51:21;22.60;70.90
12115;DHT22;6121;49.810;6.418;2023-05-25T13:53:47;22.50;71.50
12115;DHT22;6121;49.810;6.418;2023-05-25T13:56:13;22.70;71.50
12115;DHT22;6121;49.810;6.418;2023-05-25T13:58:39;22.90;71.60
12115;DHT22;6121;49.810;6.418;2023-05-25T14:01:06;22.90;71.70
12115;DHT22;6121;49.810;6.418;2023-05-25T14:03:32;23.00;71.70
12115;DHT22;6121;49.810;6.418;2023-05-25T14:05:58;23.00;71.50
12115;DHT22;6121;49.810;6.418;2023-05-25T14:08:23;23.00;71.30
12115;DHT22;6121;49.810;6.418;2023-05-25T14:10:49;23.00;71.50
12115;DHT22;6121;49.810;6.418;2023-05-25T14:13:15;23.00;71.50
12115;DHT22;6121;49.810;6.418;2023-05-25T14:15:42;22.80;71.70
12115;DHT22;6121;49.810;6.418;2023-05-25T14:18:08;22.80;71.60
12115;DHT22;6121;49.810;6.418;2023-05-25T14:20:34;22.80;71.00
12115;DHT22;6121;49.810;6.418;2023-05-25T14:23:02;22.60;72.00
12115;DHT22;6121;49.810;6.418;2023-05-25T14:25:28;22.50;73.10
12115;DHT22;6121;49.810;6.418;2023-05-25T14:27:53;22.80;73.20
12115;DHT22;6121;49.810;6.418;2023-05-25T14:30:20;22.70;72.20
12115;DHT22;6121;49.810;6.418;2023-05-25T14:32:46;22.60;71.90
12115;DHT22;6121;49.810;6.418;2023-05-25T14:35:12;22.40;72.80
12115;DHT22;6121;49.810;6.418;2023-05-25T14:37:37;22.40;72.80
12115;DHT22;6121;49.810;6.418;2023-05-25T14:40:03;22.60;71.70
12115;DHT22;6121;49.810;6.418;2023-05-25T14:42:31;22.40;70.40
12115;DHT22;6121;49.810;6.418;2023-05-25T14:44:57;22.50;71.70
12115;DHT22;6121;49.810;6.418;2023-05-25T14:47:22;22.60;72.10
12115;DHT22;6121;49.810;6.418;2023-05-25T14:49:49;22.50;73.90
12115;DHT22;6121;49.810;6.418;2023-05-25T14:52:15;22.60;74.50
12115;DHT22;6121;49.810;6.418;2023-05-25T14:54:40;22.60;74.60
12115;DHT22;6121;49.810;6.418;2023-05-25T14:57:10;22.70;74.50
12115;DHT22;6121;49.810;6.418;2023-05-25T14:59:36;22.80;74.40
12115;DHT22;6121;49.810;6.418;2023-05-25T15:02:02;22.60;72.80
12115;DHT22;6121;49.810;6.418;2023-05-25T15:04:28;22.40;71.50
12115;DHT22;6121;49.810;6.418;2023-05-25T15:06:56;22.60;72.20
12115;DHT22;6121;49.810;6.418;2023-05-25T15:09:22;22.70;72.40
12115;DHT22;6121;49.810;6.418;2023-05-25T15:11:48;22.70;73.70
12115;DHT22;6121;49.810;6.418;2023-05-25T15:14:15;22.70;74.20
12115;DHT22;6121;49.810;6.418;2023-05-25T15:16:41;22.80;74.60
12115;DHT22;6121;49.810;6.418;2023-05-25T15:19:07;22.90;75.00
12115;DHT22;6121;49.810;6.418;2023-05-25T15:21:33;22.90;75.00
12115;DHT22;6121;49.810;6.418;2023-05-25T15:23:59;22.80;75.10
12115;DHT22;6121;49.810;6.418;2023-05-25T15:26:25;22.80;75.40
12115;DHT22;6121;49.810;6.418;2023-05-25T15:28:51;22.70;75.50
12115;DHT22;6121;49.810;6.418;2023-05-25T15:31:21;22.50;75.20
12115;DHT22;6121;49.810;6.418;2023-05-25T15:33:47;22.60;76.70
12115;DHT22;6121;49.810;6.418;2023-05-25T15:36:15;22.60;76.10
12115;DHT22;6121;49.810;6.418;2023-05-25T15:38:40;22.50;76.00
12115;DHT22;6121;49.810;6.418;2023-05-25T15:41:14;22.50;76.20
12115;DHT22;6121;49.810;6.418;2023-05-25T15:43:53;22.40;75.90
12115;DHT22;6121;49.810;6.418;2023-05-25T15:46:23;22.40;76.90
12115;DHT22;6121;49.810;6.418;2023-05-25T15:48:49;22.50;77.00
12115;DHT22;6121;49.810;6.418;2023-05-25T15:51:15;22.60;76.10
12115;DHT22;6121;49.810;6.418;2023-05-25T15:53:41;22.50;76.80
12115;DHT22;6121;49.810;6.418;2023-05-25T15:56:06;22.70;76.90
12115;DHT22;6121;49.810;6.418;2023-05-25T15:58:32;22.60;77.10
12115;DHT22;6121;49.810;6.418;2023-05-25T16:00:59;22.60;77.10
12115;DHT22;6121;49.810;6.418;2023-05-25T16:03:26;22.50;76.80
12115;DHT22;6121;49.810;6.418;2023-05-25T16:05:52;22.40;75.70
12115;DHT22;6121;49.810;6.418;2023-05-25T16:08:18;22.40;76.30
12115;DHT22;6121;49.810;6.418;2023-05-25T16:10:45;22.30;76.50
12115;DHT22;6121;49.810;6.418;2023-05-25T16:13:11;22.30;76.80